createdAt,value
2022-11-12T00:00:54.503Z,8.50
2022-11-12T00:03:21.983Z,8.50
2022-11-12T00:05:50.691Z,8.60
2022-11-12T00:08:18.187Z,8.60
2022-11-12T00:10:45.462Z,8.50
2022-11-12T00:13:14.211Z,8.60
2022-11-12T00:15:41.039Z,8.50
2022-11-12T00:18:08.026Z,8.50
2022-11-12T00:20:35.348Z,8.50
2022-11-12T00:23:02.330Z,8.50
2022-11-12T00:25:29.354Z,8.40
2022-11-12T00:28:02.654Z,8.40
2022-11-12T00:30:30.005Z,8.50
2022-11-12T00:32:57.048Z,8.50
2022-11-12T00:35:23.750Z,8.40
2022-11-12T00:37:55.254Z,8.30
2022-11-12T00:40:22.137Z,8.30
2022-11-12T00:42:51.162Z,8.30
2022-11-12T00:45:18.896Z,8.20
2022-11-12T00:47:45.855Z,8.20
2022-11-12T00:50:12.727Z,8.10
2022-11-12T00:52:39.588Z,8.10
2022-11-12T00:55:06.605Z,8.20
2022-11-12T00:57:33.382Z,8.10
2022-11-12T01:00:00.068Z,8.10
2022-11-12T01:02:26.809Z,8.10
2022-11-12T01:04:53.581Z,8.10
2022-11-12T01:07:20.441Z,8.10
2022-11-12T01:09:47.191Z,8.10
2022-11-12T01:12:13.954Z,8.20
2022-11-12T01:14:40.837Z,8.20
2022-11-12T01:17:07.659Z,8.20
2022-11-12T01:19:34.483Z,8.20
2022-11-12T01:22:01.221Z,8.10
2022-11-12T01:24:27.921Z,8.10
2022-11-12T01:26:54.667Z,8.10
2022-11-12T01:29:21.433Z,8.10
2022-11-12T01:31:48.152Z,8.10
2022-11-12T01:34:14.893Z,8.00
2022-11-12T01:36:42.956Z,7.90
2022-11-12T01:39:10.136Z,7.90
2022-11-12T01:41:39.358Z,7.80
2022-11-12T01:44:15.287Z,7.80
2022-11-12T01:46:57.057Z,7.80
2022-11-12T01:49:40.095Z,7.80
2022-11-12T01:52:38.842Z,7.80
2022-11-12T01:55:09.826Z,7.80
2022-11-12T01:58:05.193Z,7.80
2022-11-12T02:00:32.064Z,7.70
2022-11-12T02:03:00.827Z,7.70
2022-11-12T02:05:29.834Z,7.70
2022-11-12T02:07:58.734Z,7.70
2022-11-12T02:10:26.445Z,7.70
2022-11-12T02:13:12.892Z,7.70
2022-11-12T02:15:41.579Z,7.70
2022-11-12T02:18:09.083Z,7.60
2022-11-12T02:20:37.908Z,7.50
2022-11-12T02:23:07.100Z,7.50
2022-11-12T02:25:34.821Z,7.50
2022-11-12T02:28:04.938Z,7.50
2022-11-12T02:30:36.086Z,7.50
2022-11-12T02:33:03.935Z,7.50
2022-11-12T02:35:31.450Z,7.50
2022-11-12T02:37:58.702Z,7.50
2022-11-12T02:40:25.671Z,7.40
2022-11-12T02:42:52.426Z,7.40
2022-11-12T02:45:19.763Z,7.40
2022-11-12T02:47:46.926Z,7.40
2022-11-12T02:50:13.749Z,7.40
2022-11-12T02:52:40.471Z,7.40
2022-11-12T02:55:09.414Z,7.40
2022-11-12T02:57:37.540Z,7.40
2022-11-12T03:00:13.285Z,7.40
2022-11-12T03:02:42.818Z,7.40
2022-11-12T03:05:13.036Z,7.30
2022-11-12T03:07:39.984Z,7.40
2022-11-12T03:10:07.372Z,7.40
2022-11-12T03:12:34.242Z,7.40
2022-11-12T03:15:01.091Z,7.40
2022-11-12T03:17:27.856Z,7.40
2022-11-12T03:19:54.602Z,7.40
2022-11-12T03:22:21.352Z,7.40
2022-11-12T03:24:48.108Z,7.40
2022-11-12T03:27:15.148Z,7.40
2022-11-12T03:29:41.973Z,7.40
2022-11-12T03:32:08.752Z,7.30
2022-11-12T03:34:35.465Z,7.30
2022-11-12T03:37:03.091Z,7.20
2022-11-12T03:39:29.851Z,7.20
2022-11-12T03:41:56.675Z,7.20
2022-11-12T03:44:23.426Z,7.10
2022-11-12T03:46:50.074Z,7.10
2022-11-12T03:49:16.819Z,7.10
2022-11-12T03:51:43.547Z,7.10
2022-11-12T03:54:10.343Z,7.10
2022-11-12T03:56:37.069Z,7.20
2022-11-12T03:59:04.246Z,7.20
2022-11-12T04:01:31.762Z,7.30
2022-11-12T04:03:58.664Z,7.20
2022-11-12T04:06:44.081Z,7.10
2022-11-12T04:09:10.823Z,7.10
2022-11-12T04:11:37.508Z,7.10
2022-11-12T04:14:04.564Z,7.10
2022-11-12T04:16:49.886Z,7.00
2022-11-12T04:19:35.262Z,7.00
2022-11-12T04:22:04.974Z,7.00
2022-11-12T04:24:58.700Z,7.10
2022-11-12T04:27:26.724Z,7.00
2022-11-12T04:30:12.613Z,7.00
2022-11-12T04:32:54.637Z,7.00
2022-11-12T04:35:25.540Z,7.00
2022-11-12T04:37:52.731Z,7.00
2022-11-12T04:40:40.614Z,7.00
2022-11-12T04:43:28.938Z,7.00
2022-11-12T04:45:56.179Z,7.10
2022-11-12T04:48:25.616Z,7.10
2022-11-12T04:51:02.278Z,7.10
2022-11-12T04:53:30.031Z,7.10
2022-11-12T04:55:58.613Z,7.10
2022-11-12T04:58:25.738Z,7.10
2022-11-12T05:00:52.985Z,7.00
2022-11-12T05:03:19.827Z,7.00
2022-11-12T05:05:46.523Z,7.00
2022-11-12T05:08:13.273Z,6.90
2022-11-12T05:10:40.000Z,6.80
2022-11-12T05:13:06.725Z,6.80
2022-11-12T05:15:33.457Z,6.80
2022-11-12T05:18:00.246Z,6.80
2022-11-12T05:20:26.997Z,6.80
2022-11-12T05:23:06.050Z,6.80
2022-11-12T05:25:35.424Z,6.80
2022-11-12T05:28:02.131Z,6.90
2022-11-12T05:30:28.855Z,6.80
2022-11-12T05:32:55.560Z,6.80
2022-11-12T05:35:22.395Z,6.70
2022-11-12T05:37:49.057Z,6.80
2022-11-12T05:40:15.790Z,6.80
2022-11-12T05:42:42.538Z,6.80
2022-11-12T05:45:09.542Z,6.80
2022-11-12T05:47:36.238Z,6.80
2022-11-12T05:50:03.265Z,6.80
2022-11-12T05:52:29.945Z,6.70
2022-11-12T05:54:56.696Z,6.70
2022-11-12T05:57:23.378Z,6.70
2022-11-12T05:59:50.075Z,6.70
2022-11-12T06:02:16.874Z,6.70
2022-11-12T06:04:43.660Z,6.70
2022-11-12T06:07:10.359Z,6.70
2022-11-12T06:09:37.189Z,6.70
2022-11-12T06:12:06.805Z,6.70
2022-11-12T06:14:33.511Z,6.80
2022-11-12T06:17:00.240Z,6.70
2022-11-12T06:19:26.937Z,6.70
2022-11-12T06:21:53.661Z,6.70
2022-11-12T06:24:20.588Z,6.70
2022-11-12T06:26:47.330Z,6.70
2022-11-12T06:29:14.077Z,6.60
2022-11-12T06:31:40.815Z,6.60
2022-11-12T06:34:07.643Z,6.50
2022-11-12T06:36:35.152Z,6.60
2022-11-12T06:39:01.950Z,6.60
2022-11-12T06:41:28.713Z,6.50
2022-11-12T06:43:55.459Z,6.50
2022-11-12T06:46:22.200Z,6.50
2022-11-12T06:48:48.965Z,6.50
2022-11-12T06:51:20.779Z,6.50
2022-11-12T06:53:48.197Z,6.60
2022-11-12T06:56:15.741Z,6.60
2022-11-12T06:58:42.627Z,6.60
2022-11-12T07:01:12.052Z,6.60
2022-11-12T07:03:40.075Z,6.60
2022-11-12T07:06:12.206Z,6.60
2022-11-12T07:08:39.693Z,6.70
2022-11-12T07:11:07.178Z,6.60
2022-11-12T07:13:35.456Z,6.70
2022-11-12T07:16:02.967Z,6.70
2022-11-12T07:18:31.029Z,6.80
2022-11-12T07:21:02.762Z,6.80
2022-11-12T07:23:32.394Z,6.80
2022-11-12T07:26:04.869Z,6.90
2022-11-12T07:28:31.771Z,7.00
2022-11-12T07:31:00.907Z,7.10
2022-11-12T07:33:28.435Z,7.20
2022-11-12T07:36:00.316Z,7.30
2022-11-12T07:38:28.871Z,7.30
2022-11-12T07:41:00.369Z,7.50
2022-11-12T07:43:28.852Z,7.40
2022-11-12T07:45:59.126Z,7.40
2022-11-12T07:48:26.681Z,7.40
2022-11-12T07:50:58.906Z,7.50
2022-11-12T07:53:26.023Z,7.40
2022-11-12T07:56:01.073Z,7.50
2022-11-12T07:58:30.194Z,7.60
2022-11-12T08:00:57.111Z,7.70
2022-11-12T08:03:24.206Z,7.70
2022-11-12T08:05:50.980Z,7.70
2022-11-12T08:08:17.801Z,7.60
2022-11-12T08:10:44.563Z,7.60
2022-11-12T08:13:11.590Z,7.60
2022-11-12T08:15:38.370Z,7.70
2022-11-12T08:18:05.216Z,7.60
2022-11-12T08:20:32.005Z,7.70
2022-11-12T08:23:01.978Z,7.70
2022-11-12T08:25:28.888Z,7.90
2022-11-12T08:27:59.446Z,7.90
2022-11-12T08:30:27.555Z,8.00
2022-11-12T08:33:05.063Z,8.10
2022-11-12T08:35:33.777Z,8.20
2022-11-12T08:38:02.942Z,8.20
2022-11-12T08:40:31.374Z,8.40
2022-11-12T08:43:03.893Z,8.40
2022-11-12T08:45:33.105Z,8.50
2022-11-12T08:48:01.839Z,8.60
2022-11-12T08:50:29.279Z,8.70
2022-11-12T08:53:04.500Z,8.80
2022-11-12T08:55:33.402Z,9.00
2022-11-12T08:58:03.937Z,9.30
2022-11-12T09:00:44.395Z,9.50
2022-11-12T09:03:17.280Z,9.70
2022-11-12T09:05:44.132Z,9.90
2022-11-12T09:08:14.418Z,10.30
2022-11-12T09:10:41.462Z,10.70
2022-11-12T09:13:08.637Z,11.10
2022-11-12T09:15:38.309Z,11.40
2022-11-12T09:18:08.382Z,11.50
2022-11-12T09:20:35.381Z,11.60
2022-11-12T09:23:15.928Z,11.80
2022-11-12T09:25:43.116Z,12.00
2022-11-12T09:28:13.065Z,12.30
2022-11-12T09:30:43.504Z,12.50
2022-11-12T09:33:10.295Z,12.60
2022-11-12T09:35:37.067Z,12.60
2022-11-12T09:38:03.887Z,12.80
2022-11-12T09:40:51.494Z,12.70
2022-11-12T09:43:34.613Z,12.60
2022-11-12T09:46:32.080Z,12.80
2022-11-12T09:49:16.307Z,12.80
2022-11-12T09:51:49.594Z,13.10
2022-11-12T09:54:22.400Z,13.10
2022-11-12T09:56:50.373Z,13.10
2022-11-12T09:59:17.557Z,13.40
2022-11-12T10:01:53.807Z,13.30
2022-11-12T10:04:55.725Z,13.40
2022-11-12T10:07:41.375Z,13.60
2022-11-12T10:10:33.181Z,13.50
2022-11-12T10:13:34.968Z,13.50
2022-11-12T10:16:36.984Z,13.50
2022-11-12T10:19:14.961Z,13.50
2022-11-12T10:22:00.222Z,13.60
2022-11-12T10:24:34.218Z,13.40
2022-11-12T10:27:02.603Z,13.30
2022-11-12T10:29:47.618Z,13.60
2022-11-12T10:32:16.308Z,13.70
2022-11-12T10:34:43.149Z,13.60
2022-11-12T10:37:42.584Z,13.70
2022-11-12T10:40:21.889Z,13.40
2022-11-12T10:43:00.415Z,13.70
2022-11-12T10:45:27.637Z,13.60
2022-11-12T10:47:54.539Z,13.70
2022-11-12T10:50:41.545Z,13.80
2022-11-12T10:53:11.689Z,14.00
2022-11-12T10:55:58.150Z,14.00
2022-11-12T10:58:25.352Z,14.00
2022-11-12T11:01:01.815Z,14.10
2022-11-12T11:03:34.926Z,14.00
2022-11-12T11:06:27.864Z,14.00
2022-11-12T11:09:17.805Z,14.00
2022-11-12T11:11:52.392Z,14.10
2022-11-12T11:14:40.605Z,14.40
2022-11-12T11:17:18.365Z,14.60
2022-11-12T11:19:45.207Z,14.90
2022-11-12T11:22:28.612Z,14.80
2022-11-12T11:25:27.980Z,14.70
2022-11-12T11:28:19.224Z,15.10
2022-11-12T11:30:58.404Z,15.10
2022-11-12T11:33:52.235Z,15.30
2022-11-12T11:36:28.117Z,15.30
2022-11-12T11:39:02.898Z,15.40
2022-11-12T11:41:44.832Z,15.70
2022-11-12T11:44:30.630Z,15.90
2022-11-12T11:47:12.654Z,15.90
2022-11-12T11:49:39.352Z,15.90
2022-11-12T11:52:38.272Z,16.00
2022-11-12T11:55:14.698Z,16.20
2022-11-12T11:58:28.983Z,16.30
2022-11-12T12:01:12.082Z,16.70
2022-11-12T12:04:00.394Z,17.00
2022-11-12T12:06:30.333Z,17.00
2022-11-12T12:09:24.953Z,17.20
2022-11-12T12:12:05.617Z,17.40
2022-11-12T12:14:39.025Z,17.30
2022-11-12T12:17:27.815Z,17.50
2022-11-12T12:20:09.285Z,18.00
2022-11-12T12:22:46.820Z,18.40
2022-11-12T12:25:23.815Z,18.80
2022-11-12T12:28:21.341Z,19.30
2022-11-12T12:30:52.643Z,19.10
2022-11-12T12:33:30.474Z,19.40
2022-11-12T12:36:08.364Z,19.70
2022-11-12T12:38:59.997Z,19.60
2022-11-12T12:41:32.880Z,19.60
2022-11-12T12:44:05.343Z,19.90
2022-11-12T12:46:38.853Z,19.80
2022-11-12T12:49:07.489Z,19.40
2022-11-12T12:51:35.780Z,19.40
2022-11-12T12:54:02.624Z,19.40
2022-11-12T12:56:32.110Z,19.00
2022-11-12T12:59:03.806Z,18.50
2022-11-12T13:01:35.728Z,18.30
2022-11-12T13:04:08.817Z,18.00
2022-11-12T13:06:46.314Z,18.20
2022-11-12T13:09:13.161Z,18.50
2022-11-12T13:12:01.386Z,18.50
2022-11-12T13:14:37.115Z,18.40
2022-11-12T13:17:11.800Z,18.60
2022-11-12T13:19:53.626Z,18.70
2022-11-12T13:22:20.319Z,18.70
2022-11-12T13:25:05.567Z,18.40
2022-11-12T13:27:44.747Z,18.10
2022-11-12T13:30:14.306Z,18.20
2022-11-12T13:32:48.484Z,18.10
2022-11-12T13:35:20.861Z,18.10
2022-11-12T13:37:50.469Z,17.90
2022-11-12T13:40:37.478Z,17.80
2022-11-12T13:43:27.580Z,17.80
2022-11-12T13:46:00.571Z,17.70
2022-11-12T13:48:29.519Z,17.50
2022-11-12T13:51:01.572Z,17.40
2022-11-12T13:53:31.531Z,17.20
2022-11-12T13:55:58.410Z,17.00
2022-11-12T13:58:33.438Z,17.00
2022-11-12T14:01:02.313Z,17.00
2022-11-12T14:03:53.432Z,16.80
2022-11-12T14:06:28.741Z,16.80
2022-11-12T14:09:10.803Z,16.90
2022-11-12T14:11:52.106Z,16.80
2022-11-12T14:14:23.813Z,16.70
2022-11-12T14:16:55.795Z,16.90
2022-11-12T14:19:49.140Z,16.90
2022-11-12T14:22:18.720Z,16.90
2022-11-12T14:24:48.159Z,16.70
2022-11-12T14:27:30.370Z,16.60
2022-11-12T14:30:17.867Z,16.60
2022-11-12T14:32:46.779Z,16.60
2022-11-12T14:35:18.398Z,16.50
2022-11-12T14:37:51.580Z,16.40
2022-11-12T14:40:19.825Z,16.40
2022-11-12T14:42:46.783Z,16.40
2022-11-12T14:45:18.796Z,16.40
2022-11-12T14:47:47.966Z,16.30
2022-11-12T14:50:28.995Z,16.30
2022-11-12T14:53:08.275Z,16.30
2022-11-12T14:55:37.297Z,16.00
2022-11-12T14:58:04.896Z,15.90
2022-11-12T15:00:31.976Z,15.90
2022-11-12T15:03:01.944Z,16.00
2022-11-12T15:05:28.982Z,16.00
2022-11-12T15:08:05.144Z,15.90
2022-11-12T15:10:39.413Z,15.90
2022-11-12T15:13:12.570Z,15.90
2022-11-12T15:15:50.135Z,15.80
2022-11-12T15:18:24.206Z,15.80
2022-11-12T15:21:13.959Z,15.70
2022-11-12T15:23:52.655Z,15.70
2022-11-12T15:26:41.798Z,15.70
2022-11-12T15:29:11.663Z,15.60
2022-11-12T15:32:13.532Z,15.60
2022-11-12T15:34:40.762Z,15.50
2022-11-12T15:37:22.383Z,15.40
2022-11-12T15:39:57.309Z,15.30
2022-11-12T15:42:37.988Z,15.10
2022-11-12T15:45:10.177Z,14.90
2022-11-12T15:47:36.971Z,14.80
2022-11-12T15:50:18.246Z,14.80
2022-11-12T15:52:45.677Z,14.70
2022-11-12T15:55:13.285Z,14.60
2022-11-12T15:57:49.124Z,14.70
2022-11-12T16:00:19.835Z,14.60
2022-11-12T16:02:52.017Z,14.50
2022-11-12T16:05:19.341Z,14.40
2022-11-12T16:07:46.362Z,14.40
2022-11-12T16:10:15.014Z,14.30
2022-11-12T16:12:42.968Z,14.30
2022-11-12T16:15:14.973Z,14.30
2022-11-12T16:17:42.158Z,14.30
2022-11-12T16:20:18.549Z,14.20
2022-11-12T16:22:45.368Z,14.10
2022-11-12T16:25:12.114Z,14.10
2022-11-12T16:27:39.835Z,14.10
2022-11-12T16:30:14.488Z,14.10
2022-11-12T16:32:41.337Z,14.10
2022-11-12T16:35:08.504Z,14.00
2022-11-12T16:37:38.226Z,13.80
2022-11-12T16:40:14.321Z,13.70
2022-11-12T16:42:45.877Z,13.60
2022-11-12T16:45:17.769Z,13.60
2022-11-12T16:47:50.144Z,13.50
2022-11-12T16:50:21.608Z,13.40
2022-11-12T16:52:49.102Z,13.30
2022-11-12T16:55:16.360Z,13.30
2022-11-12T16:57:43.402Z,13.20
2022-11-12T17:00:15.397Z,13.20
2022-11-12T17:02:45.360Z,13.20
2022-11-12T17:05:15.051Z,13.10
2022-11-12T17:07:42.070Z,13.10
2022-11-12T17:10:09.216Z,13.00
2022-11-12T17:12:35.897Z,12.90
2022-11-12T17:15:02.709Z,12.90
2022-11-12T17:17:29.484Z,12.90
2022-11-12T17:19:56.338Z,12.90
2022-11-12T17:22:24.007Z,12.80
2022-11-12T17:24:50.749Z,12.80
2022-11-12T17:27:17.960Z,12.70
2022-11-12T17:29:44.743Z,12.60
2022-11-12T17:32:11.489Z,12.60
2022-11-12T17:34:38.263Z,12.50
2022-11-12T17:37:05.114Z,12.50
2022-11-12T17:39:31.939Z,12.40
2022-11-12T17:41:58.691Z,12.50
2022-11-12T17:44:25.536Z,12.30
2022-11-12T17:46:52.301Z,12.40
2022-11-12T17:49:19.212Z,12.40
2022-11-12T17:51:45.986Z,12.40
2022-11-12T17:54:12.727Z,12.50
2022-11-12T17:56:39.528Z,12.40
2022-11-12T17:59:06.262Z,12.40
2022-11-12T18:01:34.501Z,12.40
2022-11-12T18:04:01.706Z,12.40
2022-11-12T18:06:34.139Z,12.40
2022-11-12T18:09:12.595Z,12.40
2022-11-12T18:11:51.004Z,12.30
2022-11-12T18:14:17.705Z,12.20
2022-11-12T18:16:45.032Z,12.20
2022-11-12T18:19:12.813Z,12.10
2022-11-12T18:21:40.401Z,12.20
2022-11-12T18:24:12.158Z,12.10
2022-11-12T18:26:39.339Z,12.10
2022-11-12T18:29:07.354Z,12.00
2022-11-12T18:31:34.179Z,12.00
2022-11-12T18:34:00.913Z,12.10
2022-11-12T18:36:28.498Z,11.90
2022-11-12T18:38:55.647Z,11.90
2022-11-12T18:41:25.884Z,11.90
2022-11-12T18:43:56.843Z,11.80
2022-11-12T18:46:23.837Z,11.80
2022-11-12T18:48:50.847Z,11.80
2022-11-12T18:51:19.228Z,11.70
2022-11-12T18:53:46.225Z,11.70
2022-11-12T18:56:18.095Z,11.70
2022-11-12T18:58:45.290Z,11.70
2022-11-12T19:01:17.833Z,11.60
2022-11-12T19:03:44.903Z,11.50
2022-11-12T19:06:13.810Z,11.50
2022-11-12T19:08:41.542Z,11.50
2022-11-12T19:11:11.065Z,11.50
2022-11-12T19:13:38.654Z,11.30
2022-11-12T19:16:08.346Z,11.30
2022-11-12T19:18:35.238Z,11.20
2022-11-12T19:21:28.286Z,11.20
2022-11-12T19:23:56.975Z,11.30
2022-11-12T19:26:24.175Z,11.20
2022-11-12T19:28:51.067Z,11.20
2022-11-12T19:31:23.563Z,11.20
2022-11-12T19:33:51.330Z,11.20
2022-11-12T19:36:21.902Z,11.10
2022-11-12T19:38:56.699Z,11.10
2022-11-12T19:41:24.226Z,11.10
2022-11-12T19:43:51.827Z,11.00
2022-11-12T19:46:19.248Z,11.00
2022-11-12T19:48:46.138Z,11.00
2022-11-12T19:51:13.936Z,10.90
2022-11-12T19:53:44.539Z,10.90
2022-11-12T19:56:14.060Z,10.80
2022-11-12T19:58:45.181Z,10.90
2022-11-12T20:01:14.284Z,10.90
2022-11-12T20:03:41.520Z,11.00
2022-11-12T20:06:11.022Z,10.90
2022-11-12T20:08:38.399Z,10.90
2022-11-12T20:11:05.626Z,11.00
2022-11-12T20:13:32.910Z,11.00
2022-11-12T20:15:59.620Z,10.90
2022-11-12T20:18:26.782Z,10.90
2022-11-12T20:20:56.725Z,10.90
2022-11-12T20:23:24.587Z,10.90
2022-11-12T20:25:52.618Z,10.80
2022-11-12T20:28:19.566Z,10.60
2022-11-12T20:30:46.355Z,10.60
2022-11-12T20:33:14.161Z,10.60
2022-11-12T20:35:40.973Z,10.50
2022-11-12T20:38:08.042Z,10.40
2022-11-12T20:40:34.901Z,10.40
2022-11-12T20:43:01.621Z,10.40
2022-11-12T20:45:28.529Z,10.30
2022-11-12T20:47:56.558Z,10.30
2022-11-12T20:50:23.813Z,10.40
2022-11-12T20:52:50.750Z,10.40
2022-11-12T20:55:18.221Z,10.40
2022-11-12T20:57:45.024Z,10.40
2022-11-12T21:00:14.649Z,10.40
2022-11-12T21:02:42.785Z,10.40
2022-11-12T21:05:09.571Z,10.40
2022-11-12T21:07:36.429Z,10.40
2022-11-12T21:10:04.065Z,10.30
2022-11-12T21:12:31.244Z,10.40
2022-11-12T21:14:58.065Z,10.40
2022-11-12T21:17:24.875Z,10.40
2022-11-12T21:19:51.751Z,10.40
2022-11-12T21:22:18.743Z,10.40
2022-11-12T21:24:45.540Z,10.30
2022-11-12T21:27:12.313Z,10.30
2022-11-12T21:29:39.118Z,10.20
2022-11-12T21:32:06.372Z,10.20
2022-11-12T21:34:33.239Z,10.20
2022-11-12T21:37:01.081Z,10.20
2022-11-12T21:39:27.882Z,10.20
2022-11-12T21:41:54.982Z,10.10
2022-11-12T21:44:21.754Z,10.20
2022-11-12T21:46:48.557Z,10.20
2022-11-12T21:49:15.238Z,10.20
2022-11-12T21:51:41.981Z,10.20
2022-11-12T21:54:15.143Z,10.20
2022-11-12T21:56:42.091Z,10.20
2022-11-12T21:59:08.893Z,10.20
2022-11-12T22:01:35.709Z,10.20
2022-11-12T22:04:06.486Z,10.20
2022-11-12T22:06:36.679Z,10.10
2022-11-12T22:09:05.104Z,10.20
2022-11-12T22:11:31.866Z,10.20
2022-11-12T22:13:58.634Z,10.20
2022-11-12T22:16:27.415Z,10.10
2022-11-12T22:18:55.349Z,10.20
2022-11-12T22:21:34.080Z,10.20
2022-11-12T22:24:03.978Z,10.20
2022-11-12T22:26:31.076Z,10.10
2022-11-12T22:28:59.202Z,10.20
2022-11-12T22:31:31.776Z,10.20
2022-11-12T22:34:00.694Z,10.10
2022-11-12T22:36:29.925Z,10.10
2022-11-12T22:38:57.088Z,10.10
2022-11-12T22:41:26.289Z,10.00
2022-11-12T22:43:56.143Z,10.10
2022-11-12T22:46:25.208Z,10.00
2022-11-12T22:48:52.272Z,10.00
2022-11-12T22:51:22.061Z,10.00
2022-11-12T22:53:53.972Z,10.00
2022-11-12T22:56:21.090Z,10.00
2022-11-12T22:58:48.214Z,10.00
2022-11-12T23:01:26.933Z,10.00
2022-11-12T23:04:00.805Z,10.00
2022-11-12T23:06:28.847Z,9.90
2022-11-12T23:08:57.249Z,9.90
2022-11-12T23:11:26.196Z,9.90
2022-11-12T23:13:54.720Z,10.00
2022-11-12T23:16:29.995Z,9.90
2022-11-12T23:18:57.378Z,9.90
2022-11-12T23:21:26.974Z,9.80
2022-11-12T23:23:53.801Z,9.80
2022-11-12T23:26:23.077Z,9.90
2022-11-12T23:28:50.908Z,9.90
2022-11-12T23:31:23.104Z,9.80
2022-11-12T23:33:52.145Z,9.80
2022-11-12T23:36:19.647Z,9.80
2022-11-12T23:38:46.965Z,9.70
2022-11-12T23:41:17.015Z,9.70
2022-11-12T23:43:44.218Z,9.70
2022-11-12T23:46:11.823Z,9.70
2022-11-12T23:48:38.711Z,9.70
2022-11-12T23:51:12.495Z,9.70
2022-11-12T23:53:40.051Z,9.60
2022-11-12T23:56:09.486Z,9.40
2022-11-12T23:58:37.361Z,9.50
